sensor_id;sensor_type;location;lat;lon;timestamp;P1;durP1;ratioP1;P2;durP2;ratioP2
32637;SDS011;19045;52.268;10.506;2022-10-16T00:00:33;4.25;;;1.50;;
32637;SDS011;19045;52.268;10.506;2022-10-16T00:03:01;2.95;;;1.42;;
32637;SDS011;19045;52.268;10.506;2022-10-16T00:05:27;1.80;;;1.40;;
32637;SDS011;19045;52.268;10.506;2022-10-16T00:07:54;1.70;;;1.35;;
32637;SDS011;19045;52.268;10.506;2022-10-16T00:10:22;3.58;;;1.70;;
32637;SDS011;19045;52.268;10.506;2022-10-16T00:12:49;1.95;;;1.60;;
32637;SDS011;19045;52.268;10.506;2022-10-16T00:15:16;1.85;;;1.30;;
32637;SDS011;19045;52.268;10.506;2022-10-16T00:17:42;2.17;;;1.25;;
32637;SDS011;19045;52.268;10.506;2022-10-16T00:20:09;2.08;;;1.30;;
32637;SDS011;19045;52.268;10.506;2022-10-16T00:22:36;3.13;;;1.27;;
32637;SDS011;19045;52.268;10.506;2022-10-16T00:25:02;5.68;;;1.40;;
32637;SDS011;19045;52.268;10.506;2022-10-16T00:27:31;2.10;;;1.20;;
32637;SDS011;19045;52.268;10.506;2022-10-16T00:29:57;1.80;;;1.38;;
32637;SDS011;19045;52.268;10.506;2022-10-16T00:32:24;2.67;;;1.42;;
32637;SDS011;19045;52.268;10.506;2022-10-16T00:34:50;1.98;;;1.23;;
32637;SDS011;19045;52.268;10.506;2022-10-16T00:37:19;1.73;;;1.10;;
32637;SDS011;19045;52.268;10.506;2022-10-16T00:39:46;1.30;;;0.95;;
32637;SDS011;19045;52.268;10.506;2022-10-16T00:42:14;2.55;;;1.48;;
32637;SDS011;19045;52.268;10.506;2022-10-16T00:44:44;4.95;;;1.60;;
32637;SDS011;19045;52.268;10.506;2022-10-16T00:47:16;5.25;;;1.50;;
32637;SDS011;19045;52.268;10.506;2022-10-16T00:49:45;2.75;;;1.60;;
32637;SDS011;19045;52.268;10.506;2022-10-16T00:52:13;2.85;;;1.70;;
32637;SDS011;19045;52.268;10.506;2022-10-16T00:54:40;3.78;;;2.03;;
32637;SDS011;19045;52.268;10.506;2022-10-16T00:57:07;2.88;;;1.58;;
32637;SDS011;19045;52.268;10.506;2022-10-16T00:59:35;3.33;;;1.60;;
32637;SDS011;19045;52.268;10.506;2022-10-16T01:02:05;2.63;;;1.52;;
32637;SDS011;19045;52.268;10.506;2022-10-16T01:04:35;7.15;;;1.88;;
32637;SDS011;19045;52.268;10.506;2022-10-16T01:07:06;4.13;;;1.90;;
32637;SDS011;19045;52.268;10.506;2022-10-16T01:09:43;2.72;;;1.85;;
32637;SDS011;19045;52.268;10.506;2022-10-16T01:12:19;4.05;;;2.00;;
32637;SDS011;19045;52.268;10.506;2022-10-16T01:14:53;3.50;;;1.83;;
32637;SDS011;19045;52.268;10.506;2022-10-16T01:17:22;3.90;;;1.88;;
32637;SDS011;19045;52.268;10.506;2022-10-16T01:20:10;2.90;;;1.80;;
32637;SDS011;19045;52.268;10.506;2022-10-16T01:25:16;3.35;;;2.03;;
32637;SDS011;19045;52.268;10.506;2022-10-16T01:27:48;6.68;;;2.20;;
32637;SDS011;19045;52.268;10.506;2022-10-16T01:30:16;5.72;;;1.90;;
32637;SDS011;19045;52.268;10.506;2022-10-16T01:32:48;4.05;;;1.75;;
32637;SDS011;19045;52.268;10.506;2022-10-16T01:35:18;4.88;;;2.15;;
32637;SDS011;19045;52.268;10.506;2022-10-16T01:37:50;2.63;;;1.80;;
32637;SDS011;19045;52.268;10.506;2022-10-16T01:40:20;3.85;;;2.00;;
32637;SDS011;19045;52.268;10.506;2022-10-16T01:42:53;2.90;;;1.63;;
32637;SDS011;19045;52.268;10.506;2022-10-16T01:45:23;2.55;;;1.70;;
32637;SDS011;19045;52.268;10.506;2022-10-16T01:47:49;4.65;;;2.15;;
32637;SDS011;19045;52.268;10.506;2022-10-16T01:50:18;2.60;;;1.77;;
32637;SDS011;19045;52.268;10.506;2022-10-16T01:52:47;3.42;;;1.95;;
32637;SDS011;19045;52.268;10.506;2022-10-16T01:55:18;3.97;;;1.42;;
32637;SDS011;19045;52.268;10.506;2022-10-16T01:57:49;3.25;;;1.80;;
32637;SDS011;19045;52.268;10.506;2022-10-16T02:00:20;3.47;;;1.58;;
32637;SDS011;19045;52.268;10.506;2022-10-16T02:02:49;3.88;;;1.90;;
32637;SDS011;19045;52.268;10.506;2022-10-16T02:05:21;2.55;;;1.92;;
32637;SDS011;19045;52.268;10.506;2022-10-16T02:07:52;3.83;;;1.55;;
32637;SDS011;19045;52.268;10.506;2022-10-16T02:10:18;8.13;;;2.13;;
32637;SDS011;19045;52.268;10.506;2022-10-16T02:12:47;7.38;;;2.20;;
32637;SDS011;19045;52.268;10.506;2022-10-16T02:15:21;5.70;;;2.17;;
32637;SDS011;19045;52.268;10.506;2022-10-16T02:17:47;3.75;;;2.05;;
32637;SDS011;19045;52.268;10.506;2022-10-16T02:20:14;4.35;;;1.98;;
32637;SDS011;19045;52.268;10.506;2022-10-16T02:22:42;7.07;;;1.90;;
32637;SDS011;19045;52.268;10.506;2022-10-16T02:25:14;2.50;;;1.92;;
32637;SDS011;19045;52.268;10.506;2022-10-16T02:27:45;2.00;;;1.75;;
32637;SDS011;19045;52.268;10.506;2022-10-16T02:30:19;1.55;;;1.45;;
32637;SDS011;19045;52.268;10.506;2022-10-16T02:32:51;5.95;;;2.03;;
32637;SDS011;19045;52.268;10.506;2022-10-16T02:35:20;4.30;;;2.00;;
32637;SDS011;19045;52.268;10.506;2022-10-16T02:37:48;4.50;;;2.10;;
32637;SDS011;19045;52.268;10.506;2022-10-16T02:40:16;3.67;;;1.85;;
32637;SDS011;19045;52.268;10.506;2022-10-16T02:42:43;2.95;;;1.52;;
32637;SDS011;19045;52.268;10.506;2022-10-16T02:45:10;5.90;;;1.73;;
32637;SDS011;19045;52.268;10.506;2022-10-16T02:47:39;2.63;;;1.50;;
32637;SDS011;19045;52.268;10.506;2022-10-16T02:50:06;6.53;;;2.00;;
32637;SDS011;19045;52.268;10.506;2022-10-16T02:52:33;2.85;;;1.63;;
32637;SDS011;19045;52.268;10.506;2022-10-16T02:54:59;4.20;;;1.83;;
32637;SDS011;19045;52.268;10.506;2022-10-16T02:57:26;3.58;;;1.80;;
32637;SDS011;19045;52.268;10.506;2022-10-16T02:59:53;3.00;;;1.60;;
32637;SDS011;19045;52.268;10.506;2022-10-16T03:02:20;2.83;;;1.80;;
32637;SDS011;19045;52.268;10.506;2022-10-16T03:04:47;3.92;;;1.80;;
32637;SDS011;19045;52.268;10.506;2022-10-16T03:07:14;2.97;;;1.70;;
32637;SDS011;19045;52.268;10.506;2022-10-16T03:09:41;1.63;;;1.40;;
32637;SDS011;19045;52.268;10.506;2022-10-16T03:12:07;4.35;;;2.10;;
32637;SDS011;19045;52.268;10.506;2022-10-16T03:14:34;2.63;;;1.88;;
32637;SDS011;19045;52.268;10.506;2022-10-16T03:17:01;3.95;;;1.92;;
32637;SDS011;19045;52.268;10.506;2022-10-16T03:19:27;6.95;;;1.60;;
32637;SDS011;19045;52.268;10.506;2022-10-16T03:21:55;2.95;;;1.55;;
32637;SDS011;19045;52.268;10.506;2022-10-16T03:24:22;5.53;;;2.00;;
32637;SDS011;19045;52.268;10.506;2022-10-16T03:26:49;3.22;;;1.88;;
32637;SDS011;19045;52.268;10.506;2022-10-16T03:29:15;5.10;;;1.83;;
32637;SDS011;19045;52.268;10.506;2022-10-16T03:31:42;6.45;;;1.80;;
32637;SDS011;19045;52.268;10.506;2022-10-16T03:34:08;2.85;;;1.70;;
32637;SDS011;19045;52.268;10.506;2022-10-16T03:36:35;2.50;;;1.70;;
32637;SDS011;19045;52.268;10.506;2022-10-16T03:39:03;9.60;;;2.03;;
32637;SDS011;19045;52.268;10.506;2022-10-16T03:41:30;4.57;;;2.00;;
32637;SDS011;19045;52.268;10.506;2022-10-16T03:43:56;3.22;;;2.20;;
32637;SDS011;19045;52.268;10.506;2022-10-16T03:46:23;3.20;;;1.52;;
32637;SDS011;19045;52.268;10.506;2022-10-16T03:48:50;3.30;;;2.10;;
32637;SDS011;19045;52.268;10.506;2022-10-16T03:51:16;5.22;;;2.00;;
32637;SDS011;19045;52.268;10.506;2022-10-16T03:53:43;5.97;;;2.15;;
32637;SDS011;19045;52.268;10.506;2022-10-16T03:56:11;4.95;;;2.53;;
32637;SDS011;19045;52.268;10.506;2022-10-16T03:58:37;5.57;;;2.33;;
32637;SDS011;19045;52.268;10.506;2022-10-16T04:01:04;4.72;;;2.30;;
32637;SDS011;19045;52.268;10.506;2022-10-16T04:03:30;5.88;;;2.40;;
32637;SDS011;19045;52.268;10.506;2022-10-16T04:05:57;2.72;;;2.28;;
32637;SDS011;19045;52.268;10.506;2022-10-16T04:08:24;5.35;;;2.53;;
32637;SDS011;19045;52.268;10.506;2022-10-16T04:10:50;2.78;;;2.08;;
32637;SDS011;19045;52.268;10.506;2022-10-16T04:13:18;10.07;;;2.65;;
32637;SDS011;19045;52.268;10.506;2022-10-16T04:15:45;3.58;;;2.10;;
32637;SDS011;19045;52.268;10.506;2022-10-16T04:18:12;3.47;;;2.30;;
32637;SDS011;19045;52.268;10.506;2022-10-16T04:20:38;7.53;;;2.20;;
32637;SDS011;19045;52.268;10.506;2022-10-16T04:23:05;5.63;;;2.30;;
32637;SDS011;19045;52.268;10.506;2022-10-16T04:25:32;7.85;;;2.42;;
32637;SDS011;19045;52.268;10.506;2022-10-16T04:27:58;5.82;;;2.63;;
32637;SDS011;19045;52.268;10.506;2022-10-16T04:30:26;6.25;;;2.60;;
32637;SDS011;19045;52.268;10.506;2022-10-16T04:32:53;5.40;;;2.53;;
32637;SDS011;19045;52.268;10.506;2022-10-16T04:35:20;4.72;;;2.50;;
32637;SDS011;19045;52.268;10.506;2022-10-16T04:37:47;4.82;;;2.90;;
32637;SDS011;19045;52.268;10.506;2022-10-16T04:40:15;5.25;;;2.70;;
32637;SDS011;19045;52.268;10.506;2022-10-16T04:42:42;5.00;;;2.67;;
32637;SDS011;19045;52.268;10.506;2022-10-16T04:45:09;4.18;;;2.67;;
32637;SDS011;19045;52.268;10.506;2022-10-16T04:47:37;4.65;;;2.25;;
32637;SDS011;19045;52.268;10.506;2022-10-16T04:50:04;4.78;;;2.35;;
32637;SDS011;19045;52.268;10.506;2022-10-16T04:52:32;5.47;;;2.38;;
32637;SDS011;19045;52.268;10.506;2022-10-16T04:54:58;5.15;;;2.30;;
32637;SDS011;19045;52.268;10.506;2022-10-16T04:57:27;4.18;;;2.45;;
32637;SDS011;19045;52.268;10.506;2022-10-16T04:59:54;5.03;;;2.20;;
32637;SDS011;19045;52.268;10.506;2022-10-16T05:02:21;4.28;;;2.33;;
32637;SDS011;19045;52.268;10.506;2022-10-16T05:04:49;3.45;;;2.17;;
32637;SDS011;19045;52.268;10.506;2022-10-16T05:07:15;4.40;;;2.20;;
32637;SDS011;19045;52.268;10.506;2022-10-16T05:09:42;4.70;;;2.15;;
32637;SDS011;19045;52.268;10.506;2022-10-16T05:12:09;3.67;;;2.58;;
32637;SDS011;19045;52.268;10.506;2022-10-16T05:14:35;2.50;;;2.22;;
32637;SDS011;19045;52.268;10.506;2022-10-16T05:17:02;4.95;;;2.35;;
32637;SDS011;19045;52.268;10.506;2022-10-16T05:19:28;7.13;;;2.50;;
32637;SDS011;19045;52.268;10.506;2022-10-16T05:21:56;3.72;;;2.60;;
32637;SDS011;19045;52.268;10.506;2022-10-16T05:24:23;5.40;;;2.60;;
32637;SDS011;19045;52.268;10.506;2022-10-16T05:26:50;5.30;;;2.38;;
32637;SDS011;19045;52.268;10.506;2022-10-16T05:29:17;3.92;;;2.40;;
32637;SDS011;19045;52.268;10.506;2022-10-16T05:31:44;4.30;;;2.88;;
32637;SDS011;19045;52.268;10.506;2022-10-16T05:34:10;2.88;;;2.38;;
32637;SDS011;19045;52.268;10.506;2022-10-16T05:36:37;4.85;;;2.55;;
32637;SDS011;19045;52.268;10.506;2022-10-16T05:39:05;4.45;;;2.55;;
32637;SDS011;19045;52.268;10.506;2022-10-16T05:41:32;2.83;;;2.30;;
32637;SDS011;19045;52.268;10.506;2022-10-16T05:43:58;6.88;;;2.50;;
32637;SDS011;19045;52.268;10.506;2022-10-16T05:46:25;3.55;;;2.70;;
32637;SDS011;19045;52.268;10.506;2022-10-16T05:48:52;5.97;;;2.83;;
32637;SDS011;19045;52.268;10.506;2022-10-16T05:51:19;4.30;;;2.65;;
32637;SDS011;19045;52.268;10.506;2022-10-16T05:53:45;4.55;;;2.50;;
32637;SDS011;19045;52.268;10.506;2022-10-16T05:56:13;4.72;;;2.10;;
32637;SDS011;19045;52.268;10.506;2022-10-16T05:58:40;3.35;;;2.80;;
32637;SDS011;19045;52.268;10.506;2022-10-16T06:01:09;2.92;;;2.53;;
32637;SDS011;19045;52.268;10.506;2022-10-16T06:03:37;3.97;;;2.65;;
32637;SDS011;19045;52.268;10.506;2022-10-16T06:06:08;3.47;;;2.65;;
32637;SDS011;19045;52.268;10.506;2022-10-16T06:08:35;4.45;;;2.67;;
32637;SDS011;19045;52.268;10.506;2022-10-16T06:11:03;7.85;;;2.95;;
32637;SDS011;19045;52.268;10.506;2022-10-16T06:13:32;3.67;;;2.35;;
32637;SDS011;19045;52.268;10.506;2022-10-16T06:15:59;2.58;;;2.30;;
32637;SDS011;19045;52.268;10.506;2022-10-16T06:18:27;5.32;;;2.28;;
32637;SDS011;19045;52.268;10.506;2022-10-16T06:20:54;5.05;;;2.60;;
32637;SDS011;19045;52.268;10.506;2022-10-16T06:23:21;5.82;;;2.67;;
32637;SDS011;19045;52.268;10.506;2022-10-16T06:25:48;4.20;;;2.70;;
32637;SDS011;19045;52.268;10.506;2022-10-16T06:28:15;6.53;;;2.72;;
32637;SDS011;19045;52.268;10.506;2022-10-16T06:30:43;5.70;;;2.65;;
32637;SDS011;19045;52.268;10.506;2022-10-16T06:33:10;5.68;;;2.88;;
32637;SDS011;19045;52.268;10.506;2022-10-16T06:35:37;4.25;;;2.95;;
32637;SDS011;19045;52.268;10.506;2022-10-16T06:38:03;6.40;;;2.50;;
32637;SDS011;19045;52.268;10.506;2022-10-16T06:40:30;4.05;;;2.30;;
32637;SDS011;19045;52.268;10.506;2022-10-16T06:42:57;10.40;;;2.97;;
32637;SDS011;19045;52.268;10.506;2022-10-16T06:45:23;4.38;;;2.78;;
32637;SDS011;19045;52.268;10.506;2022-10-16T06:47:51;3.17;;;2.60;;
32637;SDS011;19045;52.268;10.506;2022-10-16T06:50:18;4.75;;;2.70;;
32637;SDS011;19045;52.268;10.506;2022-10-16T06:52:44;5.05;;;2.72;;
32637;SDS011;19045;52.268;10.506;2022-10-16T06:55:11;8.48;;;2.50;;
32637;SDS011;19045;52.268;10.506;2022-10-16T06:57:38;2.95;;;2.00;;
32637;SDS011;19045;52.268;10.506;2022-10-16T07:00:05;9.27;;;2.15;;
32637;SDS011;19045;52.268;10.506;2022-10-16T07:02:32;5.05;;;2.28;;
32637;SDS011;19045;52.268;10.506;2022-10-16T07:05:00;4.65;;;2.00;;
32637;SDS011;19045;52.268;10.506;2022-10-16T07:07:27;5.20;;;2.17;;
32637;SDS011;19045;52.268;10.506;2022-10-16T07:09:54;7.15;;;2.00;;
32637;SDS011;19045;52.268;10.506;2022-10-16T07:12:21;8.82;;;1.92;;
32637;SDS011;19045;52.268;10.506;2022-10-16T07:14:47;7.50;;;1.88;;
32637;SDS011;19045;52.268;10.506;2022-10-16T07:17:14;2.33;;;1.42;;
32637;SDS011;19045;52.268;10.506;2022-10-16T07:19:40;3.47;;;1.90;;
32637;SDS011;19045;52.268;10.506;2022-10-16T07:22:08;2.90;;;1.70;;
32637;SDS011;19045;52.268;10.506;2022-10-16T07:24:35;3.30;;;1.30;;
32637;SDS011;19045;52.268;10.506;2022-10-16T07:27:01;2.75;;;1.20;;
32637;SDS011;19045;52.268;10.506;2022-10-16T07:29:28;2.72;;;1.17;;
32637;SDS011;19045;52.268;10.506;2022-10-16T07:31:55;3.50;;;1.08;;
32637;SDS011;19045;52.268;10.506;2022-10-16T07:34:21;6.68;;;1.30;;
32637;SDS011;19045;52.268;10.506;2022-10-16T07:36:48;2.00;;;1.20;;
32637;SDS011;19045;52.268;10.506;2022-10-16T07:39:18;6.65;;;1.30;;
32637;SDS011;19045;52.268;10.506;2022-10-16T07:41:44;2.70;;;0.90;;
32637;SDS011;19045;52.268;10.506;2022-10-16T07:44:11;2.15;;;1.50;;
32637;SDS011;19045;52.268;10.506;2022-10-16T07:46:38;6.75;;;1.15;;
32637;SDS011;19045;52.268;10.506;2022-10-16T07:49:04;2.45;;;1.10;;
32637;SDS011;19045;52.268;10.506;2022-10-16T07:51:31;3.15;;;1.08;;
32637;SDS011;19045;52.268;10.506;2022-10-16T07:53:58;1.42;;;0.90;;
32637;SDS011;19045;52.268;10.506;2022-10-16T07:56:26;1.83;;;1.10;;
32637;SDS011;19045;52.268;10.506;2022-10-16T07:58:53;2.20;;;0.80;;
32637;SDS011;19045;52.268;10.506;2022-10-16T08:01:19;3.22;;;1.10;;
32637;SDS011;19045;52.268;10.506;2022-10-16T08:03:48;1.48;;;0.80;;
32637;SDS011;19045;52.268;10.506;2022-10-16T08:06:18;4.75;;;1.33;;
32637;SDS011;19045;52.268;10.506;2022-10-16T08:08:46;2.47;;;1.08;;
32637;SDS011;19045;52.268;10.506;2022-10-16T08:11:13;2.15;;;0.88;;
32637;SDS011;19045;52.268;10.506;2022-10-16T08:13:41;6.95;;;1.10;;
32637;SDS011;19045;52.268;10.506;2022-10-16T08:16:08;4.50;;;0.90;;
32637;SDS011;19045;52.268;10.506;2022-10-16T08:18:36;3.58;;;0.60;;
32637;SDS011;19045;52.268;10.506;2022-10-16T08:21:04;2.95;;;0.80;;
32637;SDS011;19045;52.268;10.506;2022-10-16T08:23:32;3.45;;;1.02;;
32637;SDS011;19045;52.268;10.506;2022-10-16T08:26:02;4.30;;;1.05;;
32637;SDS011;19045;52.268;10.506;2022-10-16T08:28:30;1.33;;;0.73;;
32637;SDS011;19045;52.268;10.506;2022-10-16T08:31:05;2.30;;;0.75;;
32637;SDS011;19045;52.268;10.506;2022-10-16T08:33:33;2.50;;;0.68;;
32637;SDS011;19045;52.268;10.506;2022-10-16T08:36:01;3.90;;;0.60;;
32637;SDS011;19045;52.268;10.506;2022-10-16T08:38:27;4.05;;;0.60;;
32637;SDS011;19045;52.268;10.506;2022-10-16T08:40:54;1.15;;;0.60;;
32637;SDS011;19045;52.268;10.506;2022-10-16T08:43:36;0.85;;;0.43;;
32637;SDS011;19045;52.268;10.506;2022-10-16T08:46:21;2.50;;;0.57;;
32637;SDS011;19045;52.268;10.506;2022-10-16T08:49:01;6.20;;;0.70;;
32637;SDS011;19045;52.268;10.506;2022-10-16T08:51:29;5.55;;;1.00;;
32637;SDS011;19045;52.268;10.506;2022-10-16T08:53:58;4.88;;;0.68;;
32637;SDS011;19045;52.268;10.506;2022-10-16T08:56:27;3.67;;;0.68;;
32637;SDS011;19045;52.268;10.506;2022-10-16T08:58:54;3.17;;;0.77;;
32637;SDS011;19045;52.268;10.506;2022-10-16T09:01:22;1.27;;;0.70;;
32637;SDS011;19045;52.268;10.506;2022-10-16T09:04:02;1.10;;;0.60;;
32637;SDS011;19045;52.268;10.506;2022-10-16T09:06:43;2.22;;;0.70;;
32637;SDS011;19045;52.268;10.506;2022-10-16T09:09:19;3.80;;;0.70;;
32637;SDS011;19045;52.268;10.506;2022-10-16T09:11:55;2.17;;;0.55;;
32637;SDS011;19045;52.268;10.506;2022-10-16T09:14:35;6.63;;;0.55;;
32637;SDS011;19045;52.268;10.506;2022-10-16T09:17:30;1.55;;;0.65;;
32637;SDS011;19045;52.268;10.506;2022-10-16T09:20:09;2.35;;;0.50;;
32637;SDS011;19045;52.268;10.506;2022-10-16T09:22:44;2.78;;;0.50;;
32637;SDS011;19045;52.268;10.506;2022-10-16T09:25:11;1.02;;;0.60;;
32637;SDS011;19045;52.268;10.506;2022-10-16T09:27:39;3.13;;;0.60;;
32637;SDS011;19045;52.268;10.506;2022-10-16T09:30:10;1.60;;;0.63;;
32637;SDS011;19045;52.268;10.506;2022-10-16T09:35:10;1.25;;;0.50;;
32637;SDS011;19045;52.268;10.506;2022-10-16T09:37:39;3.25;;;0.63;;
32637;SDS011;19045;52.268;10.506;2022-10-16T09:43:28;1.17;;;0.40;;
32637;SDS011;19045;52.268;10.506;2022-10-16T09:46:01;4.13;;;1.00;;
32637;SDS011;19045;52.268;10.506;2022-10-16T09:48:33;3.55;;;0.45;;
32637;SDS011;19045;52.268;10.506;2022-10-16T09:51:04;0.30;;;0.30;;
32637;SDS011;19045;52.268;10.506;2022-10-16T09:53:41;1.45;;;0.60;;
32637;SDS011;19045;52.268;10.506;2022-10-16T09:56:09;0.80;;;0.50;;
32637;SDS011;19045;52.268;10.506;2022-10-16T09:58:41;0.82;;;0.20;;
32637;SDS011;19045;52.268;10.506;2022-10-16T10:01:11;0.57;;;0.38;;
32637;SDS011;19045;52.268;10.506;2022-10-16T10:03:42;1.02;;;0.40;;
32637;SDS011;19045;52.268;10.506;2022-10-16T10:06:17;1.88;;;0.50;;
32637;SDS011;19045;52.268;10.506;2022-10-16T10:08:57;1.67;;;0.45;;
32637;SDS011;19045;52.268;10.506;2022-10-16T10:14:25;1.45;;;0.50;;
32637;SDS011;19045;52.268;10.506;2022-10-16T10:17:09;2.95;;;0.30;;
32637;SDS011;19045;52.268;10.506;2022-10-16T10:19:41;0.47;;;0.22;;
32637;SDS011;19045;52.268;10.506;2022-10-16T10:22:19;2.88;;;0.50;;
32637;SDS011;19045;52.268;10.506;2022-10-16T10:24:56;0.85;;;0.50;;
32637;SDS011;19045;52.268;10.506;2022-10-16T10:27:26;2.03;;;0.43;;
32637;SDS011;19045;52.268;10.506;2022-10-16T10:30:02;2.05;;;0.40;;
32637;SDS011;19045;52.268;10.506;2022-10-16T10:32:36;2.08;;;0.38;;
32637;SDS011;19045;52.268;10.506;2022-10-16T10:35:15;0.82;;;0.45;;
32637;SDS011;19045;52.268;10.506;2022-10-16T10:37:57;2.85;;;0.30;;
32637;SDS011;19045;52.268;10.506;2022-10-16T10:40:39;1.50;;;0.50;;
32637;SDS011;19045;52.268;10.506;2022-10-16T10:43:18;1.33;;;0.20;;
32637;SDS011;19045;52.268;10.506;2022-10-16T10:45:57;2.38;;;0.28;;
32637;SDS011;19045;52.268;10.506;2022-10-16T10:48:33;1.08;;;0.30;;
32637;SDS011;19045;52.268;10.506;2022-10-16T10:51:16;1.05;;;0.40;;
32637;SDS011;19045;52.268;10.506;2022-10-16T10:53:52;1.95;;;0.43;;
32637;SDS011;19045;52.268;10.506;2022-10-16T10:56:38;2.47;;;0.40;;
32637;SDS011;19045;52.268;10.506;2022-10-16T10:59:13;3.80;;;0.40;;
32637;SDS011;19045;52.268;10.506;2022-10-16T11:01:55;0.60;;;0.38;;
32637;SDS011;19045;52.268;10.506;2022-10-16T11:04:33;1.67;;;0.38;;
32637;SDS011;19045;52.268;10.506;2022-10-16T11:07:13;2.83;;;0.35;;
32637;SDS011;19045;52.268;10.506;2022-10-16T11:09:45;1.85;;;0.30;;
32637;SDS011;19045;52.268;10.506;2022-10-16T11:12:16;2.10;;;0.50;;
32637;SDS011;19045;52.268;10.506;2022-10-16T11:14:48;2.83;;;0.30;;
32637;SDS011;19045;52.268;10.506;2022-10-16T11:17:22;2.30;;;0.70;;
32637;SDS011;19045;52.268;10.506;2022-10-16T11:19:52;3.30;;;0.63;;
32637;SDS011;19045;52.268;10.506;2022-10-16T11:22:26;4.35;;;0.60;;
32637;SDS011;19045;52.268;10.506;2022-10-16T11:24:59;0.63;;;0.40;;
32637;SDS011;19045;52.268;10.506;2022-10-16T11:27:34;1.77;;;0.43;;
32637;SDS011;19045;52.268;10.506;2022-10-16T11:30:04;1.45;;;0.60;;
32637;SDS011;19045;52.268;10.506;2022-10-16T11:32:52;1.20;;;0.40;;
32637;SDS011;19045;52.268;10.506;2022-10-16T11:35:32;1.30;;;0.30;;
32637;SDS011;19045;52.268;10.506;2022-10-16T11:38:07;4.70;;;0.50;;
32637;SDS011;19045;52.268;10.506;2022-10-16T11:40:38;0.73;;;0.30;;
32637;SDS011;19045;52.268;10.506;2022-10-16T11:43:12;3.35;;;0.60;;
32637;SDS011;19045;52.268;10.506;2022-10-16T11:45:43;2.08;;;0.40;;
32637;SDS011;19045;52.268;10.506;2022-10-16T11:48:15;1.92;;;0.55;;
32637;SDS011;19045;52.268;10.506;2022-10-16T11:50:50;4.50;;;0.47;;
32637;SDS011;19045;52.268;10.506;2022-10-16T11:53:23;1.98;;;0.40;;
32637;SDS011;19045;52.268;10.506;2022-10-16T11:56:01;2.27;;;0.87;;
32637;SDS011;19045;52.268;10.506;2022-10-16T11:58:28;1.20;;;0.40;;
32637;SDS011;19045;52.268;10.506;2022-10-16T12:01:02;1.85;;;0.40;;
32637;SDS011;19045;52.268;10.506;2022-10-16T12:03:44;2.25;;;0.38;;
32637;SDS011;19045;52.268;10.506;2022-10-16T12:06:18;1.60;;;0.43;;
32637;SDS011;19045;52.268;10.506;2022-10-16T12:08:53;1.30;;;0.40;;
32637;SDS011;19045;52.268;10.506;2022-10-16T12:11:30;1.27;;;0.38;;
32637;SDS011;19045;52.268;10.506;2022-10-16T12:14:06;3.30;;;0.45;;
32637;SDS011;19045;52.268;10.506;2022-10-16T12:16:50;2.05;;;0.50;;
32637;SDS011;19045;52.268;10.506;2022-10-16T12:19:19;1.38;;;0.40;;
32637;SDS011;19045;52.268;10.506;2022-10-16T12:21:47;1.73;;;0.40;;
32637;SDS011;19045;52.268;10.506;2022-10-16T12:24:27;1.48;;;0.47;;
32637;SDS011;19045;52.268;10.506;2022-10-16T12:26:57;6.47;;;0.60;;
32637;SDS011;19045;52.268;10.506;2022-10-16T12:29:28;1.48;;;0.28;;
32637;SDS011;19045;52.268;10.506;2022-10-16T12:31:59;4.03;;;0.50;;
32637;SDS011;19045;52.268;10.506;2022-10-16T12:34:27;1.10;;;0.30;;
32637;SDS011;19045;52.268;10.506;2022-10-16T12:37:06;2.67;;;0.20;;
32637;SDS011;19045;52.268;10.506;2022-10-16T12:39:37;3.97;;;0.50;;
32637;SDS011;19045;52.268;10.506;2022-10-16T12:42:05;2.42;;;0.43;;
32637;SDS011;19045;52.268;10.506;2022-10-16T12:44:45;2.75;;;0.50;;
32637;SDS011;19045;52.268;10.506;2022-10-16T12:47:19;1.77;;;0.35;;
32637;SDS011;19045;52.268;10.506;2022-10-16T12:49:48;3.65;;;0.68;;
32637;SDS011;19045;52.268;10.506;2022-10-16T12:52:26;1.60;;;0.47;;
32637;SDS011;19045;52.268;10.506;2022-10-16T12:54:57;3.97;;;0.40;;
32637;SDS011;19045;52.268;10.506;2022-10-16T12:57:31;1.27;;;0.20;;
32637;SDS011;19045;52.268;10.506;2022-10-16T13:00:10;3.33;;;0.40;;
32637;SDS011;19045;52.268;10.506;2022-10-16T13:06:02;1.40;;;0.32;;
32637;SDS011;19045;52.268;10.506;2022-10-16T13:08:44;2.13;;;0.55;;
32637;SDS011;19045;52.268;10.506;2022-10-16T13:11:25;1.85;;;0.40;;
32637;SDS011;19045;52.268;10.506;2022-10-16T13:14:15;2.17;;;0.50;;
32637;SDS011;19045;52.268;10.506;2022-10-16T13:16:57;5.38;;;0.60;;
32637;SDS011;19045;52.268;10.506;2022-10-16T13:19:35;2.67;;;0.98;;
32637;SDS011;19045;52.268;10.506;2022-10-16T13:22:11;8.48;;;0.75;;
32637;SDS011;19045;52.268;10.506;2022-10-16T13:24:54;2.40;;;0.70;;
32637;SDS011;19045;52.268;10.506;2022-10-16T13:27:34;3.05;;;0.40;;
32637;SDS011;19045;52.268;10.506;2022-10-16T13:30:11;0.60;;;0.38;;
32637;SDS011;19045;52.268;10.506;2022-10-16T13:32:40;5.30;;;0.47;;
32637;SDS011;19045;52.268;10.506;2022-10-16T13:35:20;4.63;;;0.32;;
32637;SDS011;19045;52.268;10.506;2022-10-16T13:37:50;3.70;;;0.40;;
32637;SDS011;19045;52.268;10.506;2022-10-16T13:40:20;1.10;;;0.50;;
32637;SDS011;19045;52.268;10.506;2022-10-16T13:42:51;3.15;;;0.47;;
32637;SDS011;19045;52.268;10.506;2022-10-16T13:45:20;1.35;;;0.30;;
32637;SDS011;19045;52.268;10.506;2022-10-16T13:47:48;3.80;;;0.20;;
32637;SDS011;19045;52.268;10.506;2022-10-16T13:50:16;2.25;;;0.32;;
32637;SDS011;19045;52.268;10.506;2022-10-16T13:52:44;1.95;;;0.38;;
32637;SDS011;19045;52.268;10.506;2022-10-16T13:55:12;2.53;;;0.45;;
32637;SDS011;19045;52.268;10.506;2022-10-16T13:57:39;2.58;;;0.50;;
32637;SDS011;19045;52.268;10.506;2022-10-16T14:00:20;1.10;;;0.43;;
32637;SDS011;19045;52.268;10.506;2022-10-16T14:03:01;2.10;;;0.60;;
32637;SDS011;19045;52.268;10.506;2022-10-16T14:05:31;2.25;;;0.20;;
32637;SDS011;19045;52.268;10.506;2022-10-16T14:07:58;2.10;;;0.50;;
32637;SDS011;19045;52.268;10.506;2022-10-16T14:10:29;0.95;;;0.40;;
32637;SDS011;19045;52.268;10.506;2022-10-16T14:12:57;1.17;;;0.52;;
32637;SDS011;19045;52.268;10.506;2022-10-16T14:15:27;2.15;;;0.40;;
32637;SDS011;19045;52.268;10.506;2022-10-16T14:17:59;1.88;;;0.20;;
32637;SDS011;19045;52.268;10.506;2022-10-16T14:20:27;2.13;;;0.50;;
32637;SDS011;19045;52.268;10.506;2022-10-16T14:22:59;2.00;;;0.30;;
32637;SDS011;19045;52.268;10.506;2022-10-16T14:25:27;2.20;;;0.52;;
32637;SDS011;19045;52.268;10.506;2022-10-16T14:28:02;1.70;;;0.30;;
32637;SDS011;19045;52.268;10.506;2022-10-16T14:30:33;0.52;;;0.28;;
32637;SDS011;19045;52.268;10.506;2022-10-16T14:33:04;0.73;;;0.20;;
32637;SDS011;19045;52.268;10.506;2022-10-16T14:35:35;2.17;;;0.30;;
32637;SDS011;19045;52.268;10.506;2022-10-16T14:38:03;3.22;;;0.25;;
32637;SDS011;19045;52.268;10.506;2022-10-16T14:40:35;1.55;;;0.40;;
32637;SDS011;19045;52.268;10.506;2022-10-16T14:43:05;1.67;;;0.60;;
32637;SDS011;19045;52.268;10.506;2022-10-16T14:45:34;4.78;;;0.47;;
32637;SDS011;19045;52.268;10.506;2022-10-16T14:48:02;2.30;;;0.95;;
32637;SDS011;19045;52.268;10.506;2022-10-16T14:50:32;1.98;;;0.60;;
32637;SDS011;19045;52.268;10.506;2022-10-16T14:52:59;3.03;;;0.40;;
32637;SDS011;19045;52.268;10.506;2022-10-16T14:55:26;4.00;;;0.70;;
32637;SDS011;19045;52.268;10.506;2022-10-16T14:57:52;0.88;;;0.30;;
32637;SDS011;19045;52.268;10.506;2022-10-16T15:00:20;2.38;;;0.50;;
32637;SDS011;19045;52.268;10.506;2022-10-16T15:02:54;4.68;;;0.45;;
32637;SDS011;19045;52.268;10.506;2022-10-16T15:05:22;2.80;;;0.47;;